Time;durP1;ratioP1;P1;durP2;ratioP2;P2;SDS_P1;SDS_P2;PMS_P1;PMS_P2;Temp;Humidity;BMP_temperature;BMP_pressure;BME280_temperature;BME280_humidity;BME280_pressure;Samples;Min_cycle;Max_cycle;Signal;HPM_P1;HPM_P2
2022/04/01 00:00:28;;;;;;;;;;;3.60;99.90;;;;;;2083363;28;19973;-68
2022/04/01 00:01:28;;;;;;;;;;;3.60;99.90;;;;;;2085655;28;20503;-68
2022/04/01 00:02:29;;;;;;;;;;;3.60;99.90;;;;;;2083001;28;19958;-68
2022/04/01 00:03:30;;;;;;;;;;;3.60;99.90;;;;;;2084025;28;19995;-68
2022/04/01 00:04:30;;;;;;;;;;;3.60;99.90;;;;;;2082201;28;19909;-68
2022/04/01 00:05:33;;;;;;;;;;;3.60;99.90;;;;;;2079610;28;19908;-68
2022/04/01 00:06:33;;;;;;;;;;;3.60;99.90;;;;;;2080933;28;19987;-68
2022/04/01 00:07:34;;;;;;;;;;;3.60;99.90;;;;;;2081182;28;19947;-68
2022/04/01 00:08:35;;;;;;;;;;;3.60;99.90;;;;;;2077648;28;19929;-68
2022/04/01 00:09:37;;;;;;;;;;;3.60;99.90;;;;;;2084321;28;19904;-68
2022/04/01 00:10:38;;;;;;;;;;;3.60;99.90;;;;;;2081892;28;19906;-68
2022/04/01 00:11:38;;;;;;;;;;;3.60;99.90;;;;;;2083870;28;19913;-68
2022/04/01 00:12:43;;;;;;;;;;;3.60;99.90;;;;;;2080747;28;19909;-68
2022/04/01 00:13:43;;;;;;;;;;;3.60;99.90;;;;;;2083262;28;19947;-68
2022/04/01 00:14:43;;;;;;;;;;;3.60;99.90;;;;;;2079765;28;19909;-68
2022/04/01 00:15:44;;;;;;;;;;;3.60;99.90;;;;;;2081569;28;19935;-68
2022/04/01 00:16:45;;;;;;;;;;;3.60;99.90;;;;;;2085056;28;19909;-68
2022/04/01 00:17:45;;;;;;;;;;;3.60;99.90;;;;;;2081264;28;19905;-68
2022/04/01 00:18:46;;;;;;;;;;;3.60;99.90;;;;;;2082514;28;20356;-68
2022/04/01 00:19:46;;;;;;;;;;;3.60;99.90;;;;;;2083800;28;19909;-68
2022/04/01 00:20:47;;;;;;;;;;;3.60;99.90;;;;;;2080894;28;19959;-68
2022/04/01 00:21:47;;;;;;;;;;;3.60;99.90;;;;;;2082141;28;19936;-68
2022/04/01 00:22:48;;;;;;;;;;;3.60;99.90;;;;;;2078448;28;19971;-68
2022/04/01 00:23:48;;;;;;;;;;;3.60;99.90;;;;;;2082696;28;20217;-68
2022/04/01 00:24:49;;;;;;;;;;;3.60;99.90;;;;;;2085255;28;19963;-69
2022/04/01 00:25:50;;;;;;;;;;;3.60;99.90;;;;;;2081759;28;19916;-68
2022/04/01 00:26:50;;;;;;;;;;;3.60;99.90;;;;;;2082398;28;19913;-68
2022/04/01 00:27:51;;;;;;;;;;;3.60;99.90;;;;;;2082716;28;20000;-68
2022/04/01 00:28:51;;;;;;;;;;;3.60;99.90;;;;;;2080492;28;20631;-68
2022/04/01 00:29:52;;;;;;;;;;;3.60;99.90;;;;;;2081681;28;20000;-68
2022/04/01 00:30:54;;;;;;;;;;;3.60;99.90;;;;;;2080336;28;20288;-68
2022/04/01 00:32:01;;;;;;;;;;;3.50;99.90;;;;;;2085491;28;20357;-68
2022/04/01 00:33:04;;;;;;;;;;;3.50;99.90;;;;;;2084958;28;19948;-68
2022/04/01 00:34:26;;;;;;;;;;;3.50;99.90;;;;;;2083844;28;19909;-68
2022/04/01 00:35:25;;;;;;;;;;;3.50;99.90;;;;;;2078244;28;19909;-68
2022/04/01 00:36:25;;;;;;;;;;;3.50;99.90;;;;;;2080192;28;19940;-68
2022/04/01 00:37:26;;;;;;;;;;;3.50;99.90;;;;;;2082496;28;19915;-68
2022/04/01 00:38:26;;;;;;;;;;;3.40;99.90;;;;;;2078101;28;19909;-68
2022/04/01 00:39:31;;;;;;;;;;;3.40;99.90;;;;;;2083810;28;19909;-68
2022/04/01 00:40:32;;;;;;;;;;;3.40;99.90;;;;;;2084511;28;19912;-68
2022/04/01 00:41:32;;;;;;;;;;;3.40;99.90;;;;;;2079402;28;19958;-67
2022/04/01 00:42:33;;;;;;;;;;;3.40;99.90;;;;;;2084176;28;19911;-68
2022/04/01 00:43:34;;;;;;;;;;;3.40;99.90;;;;;;2081836;28;19923;-68
2022/04/01 00:44:36;;;;;;;;;;;3.40;99.90;;;;;;2080454;28;20379;-68
2022/04/01 00:45:37;;;;;;;;;;;3.40;99.90;;;;;;2081586;28;19920;-68
2022/04/01 00:46:39;;;;;;;;;;;3.40;99.90;;;;;;2078323;28;19917;-68
2022/04/01 00:47:39;;;;;;;;;;;3.40;99.90;;;;;;2081407;28;19936;-68
2022/04/01 00:48:40;;;;;;;;;;;3.40;99.90;;;;;;2084730;28;19909;-68
2022/04/01 00:49:42;;;;;;;;;;;3.40;99.90;;;;;;2082414;28;19905;-68
2022/04/01 00:50:42;;;;;;;;;;;3.30;99.90;;;;;;2084904;28;20315;-68
2022/04/01 00:51:44;;;;;;;;;;;3.30;99.90;;;;;;2083832;28;19909;-68
2022/04/01 00:52:44;;;;;;;;;;;3.30;99.90;;;;;;2080664;28;20308;-68
2022/04/01 00:53:45;;;;;;;;;;;3.30;99.90;;;;;;2081730;28;19909;-68
2022/04/01 00:54:45;;;;;;;;;;;3.30;99.90;;;;;;2078391;28;19913;-68
2022/04/01 00:55:46;;;;;;;;;;;3.30;99.90;;;;;;2077268;28;19916;-68
2022/04/01 00:56:47;;;;;;;;;;;3.30;99.90;;;;;;2084851;28;20328;-68
2022/04/01 00:57:47;;;;;;;;;;;3.30;99.90;;;;;;2082729;28;20344;-68
2022/04/01 00:58:48;;;;;;;;;;;3.30;99.90;;;;;;2083612;28;19928;-68
2022/04/01 00:59:50;;;;;;;;;;;3.30;99.90;;;;;;2079903;28;19991;-68
2022/04/01 01:00:50;;;;;;;;;;;3.30;99.90;;;;;;2084017;28;19909;-67
2022/04/01 01:01:51;;;;;;;;;;;3.30;99.90;;;;;;2081572;28;20550;-67
2022/04/01 01:02:51;;;;;;;;;;;3.30;99.90;;;;;;2079041;28;19908;-67
2022/04/01 01:03:51;;;;;;;;;;;3.30;99.90;;;;;;2084822;28;20372;-68
2022/04/01 01:04:52;;;;;;;;;;;3.30;99.90;;;;;;2083223;28;19975;-68
2022/04/01 01:05:52;;;;;;;;;;;3.30;99.90;;;;;;2081297;28;19908;-68
2022/04/01 01:06:54;;;;;;;;;;;3.30;99.90;;;;;;2083316;28;20277;-68
2022/04/01 01:07:55;;;;;;;;;;;3.30;99.90;;;;;;2081387;28;19955;-68
2022/04/01 01:08:56;;;;;;;;;;;3.30;99.90;;;;;;2081423;28;19913;-68
2022/04/01 01:09:57;;;;;;;;;;;3.30;99.90;;;;;;2079651;28;19909;-68
2022/04/01 01:10:57;;;;;;;;;;;3.30;99.90;;;;;;2079606;28;20401;-68
2022/04/01 01:11:58;;;;;;;;;;;3.30;99.90;;;;;;2084482;28;19989;-68
2022/04/01 01:12:58;;;;;;;;;;;3.30;99.90;;;;;;2081159;28;19905;-68
2022/04/01 01:13:59;;;;;;;;;;;3.30;99.90;;;;;;2082463;28;19909;-67
2022/04/01 01:15:13;;;;;;;;;;;3.30;99.90;;;;;;2082320;28;19911;-68
2022/04/01 01:16:14;;;;;;;;;;;3.30;99.90;;;;;;2081578;28;20311;-68
2022/04/01 01:17:14;;;;;;;;;;;3.30;99.90;;;;;;2078586;28;19909;-68
2022/04/01 01:18:16;;;;;;;;;;;3.30;99.90;;;;;;2084636;28;20284;-68
2022/04/01 01:19:17;;;;;;;;;;;3.20;99.90;;;;;;2085296;28;19908;-68
2022/04/01 01:20:17;;;;;;;;;;;3.30;99.90;;;;;;2084179;28;20361;-68
2022/04/01 01:21:19;;;;;;;;;;;3.20;99.90;;;;;;2081381;28;20373;-68
2022/04/01 01:22:19;;;;;;;;;;;3.30;99.90;;;;;;2083531;28;19974;-68
2022/04/01 01:23:19;;;;;;;;;;;3.30;99.90;;;;;;2080671;28;19906;-68
2022/04/01 01:24:41;;;;;;;;;;;3.30;99.90;;;;;;2082351;28;19905;-68
2022/04/01 01:25:42;;;;;;;;;;;3.30;99.90;;;;;;2077098;28;19912;-68
2022/04/01 01:26:47;;;;;;;;;;;3.30;99.90;;;;;;2081980;28;19966;-68
2022/04/01 01:27:48;;;;;;;;;;;3.30;99.90;;;;;;2080969;28;20098;-68
2022/04/01 01:28:48;;;;;;;;;;;3.30;99.90;;;;;;2082016;28;20418;-68
2022/04/01 01:29:49;;;;;;;;;;;3.20;99.90;;;;;;2082168;28;19905;-68
2022/04/01 01:30:50;;;;;;;;;;;3.20;99.90;;;;;;2082193;28;20451;-68
2022/04/01 01:31:52;;;;;;;;;;;3.20;99.90;;;;;;2079399;28;19909;-68
2022/04/01 01:32:52;;;;;;;;;;;3.20;99.90;;;;;;2080889;28;20276;-68
2022/04/01 01:33:54;;;;;;;;;;;3.20;99.90;;;;;;2076977;28;19940;-68
2022/04/01 01:34:54;;;;;;;;;;;3.30;99.90;;;;;;2076846;28;20540;-68
2022/04/01 01:35:55;;;;;;;;;;;3.30;99.90;;;;;;2079436;28;20957;-68
2022/04/01 01:36:56;;;;;;;;;;;3.20;99.90;;;;;;2080789;28;19948;-68
2022/04/01 01:37:56;;;;;;;;;;;3.30;99.90;;;;;;2080903;28;19920;-68
2022/04/01 01:38:57;;;;;;;;;;;3.30;99.90;;;;;;2078528;28;19909;-68
2022/04/01 01:39:58;;;;;;;;;;;3.30;99.90;;;;;;2080934;28;20658;-68
2022/04/01 01:40:59;;;;;;;;;;;3.30;99.90;;;;;;2080035;28;20368;-68
2022/04/01 01:41:59;;;;;;;;;;;3.20;99.90;;;;;;2079873;28;20563;-68
2022/04/01 01:43:00;;;;;;;;;;;3.20;99.90;;;;;;2084870;28;19904;-68
2022/04/01 01:44:00;;;;;;;;;;;3.20;99.90;;;;;;2073544;28;20361;-68
2022/04/01 01:45:01;;;;;;;;;;;3.20;99.90;;;;;;2078434;28;19947;-68
2022/04/01 01:46:01;;;;;;;;;;;3.20;99.90;;;;;;2076647;28;19905;-68
2022/04/01 01:47:02;;;;;;;;;;;3.20;99.90;;;;;;2084017;28;19917;-68
2022/04/01 01:48:03;;;;;;;;;;;3.20;99.90;;;;;;2082430;28;19955;-68
2022/04/01 01:49:04;;;;;;;;;;;3.20;99.90;;;;;;2082102;28;19905;-68
2022/04/01 01:55:21;;;;;;;;;;;3.20;99.90;;;;;;2080394;28;19909;-68
2022/04/01 01:56:22;;;;;;;;;;;3.20;99.90;;;;;;2078847;28;19948;-68
2022/04/01 01:57:23;;;;;;;;;;;3.20;99.90;;;;;;2080881;28;19913;-68
2022/04/01 01:58:24;;;;;;;;;;;3.20;99.90;;;;;;2082422;28;20369;-68
2022/04/01 01:59:25;;;;;;;;;;;3.20;99.90;;;;;;2083158;28;20524;-68
2022/04/01 02:00:25;;;;;;;;;;;3.20;99.90;;;;;;2081080;28;19913;-68
2022/04/01 02:01:25;;;;;;;;;;;3.10;99.90;;;;;;2081410;28;20400;-68
2022/04/01 02:02:26;;;;;;;;;;;3.10;99.90;;;;;;2078759;28;20024;-68
2022/04/01 02:03:26;;;;;;;;;;;3.10;99.90;;;;;;2081384;28;19944;-68
2022/04/01 02:04:27;;;;;;;;;;;3.10;99.90;;;;;;2079416;28;19913;-68
2022/04/01 02:05:27;;;;;;;;;;;3.20;99.90;;;;;;2076426;28;19916;-68
2022/04/01 02:06:29;;;;;;;;;;;3.10;99.90;;;;;;2080865;28;19913;-68
2022/04/01 02:07:30;;;;;;;;;;;3.20;99.90;;;;;;2080627;28;19999;-68
2022/04/01 02:08:31;;;;;;;;;;;3.20;99.90;;;;;;2082204;28;19935;-68
2022/04/01 02:09:32;;;;;;;;;;;3.20;99.90;;;;;;2081970;28;19939;-68
2022/04/01 02:10:32;;;;;;;;;;;3.20;99.90;;;;;;2082894;28;19936;-68
2022/04/01 02:11:33;;;;;;;;;;;3.20;99.90;;;;;;2082134;28;20629;-68
2022/04/01 02:12:33;;;;;;;;;;;3.20;99.90;;;;;;2078474;28;19941;-68
2022/04/01 02:13:34;;;;;;;;;;;3.20;99.90;;;;;;2081305;28;19909;-68
2022/04/01 02:14:36;;;;;;;;;;;3.20;99.90;;;;;;2084290;28;19913;-68
2022/04/01 02:15:36;;;;;;;;;;;3.10;99.90;;;;;;2078954;28;20283;-68
2022/04/01 02:16:37;;;;;;;;;;;3.10;99.90;;;;;;2082149;28;19928;-68
2022/04/01 02:17:41;;;;;;;;;;;3.10;99.90;;;;;;2081320;28;19992;-68
2022/04/01 02:18:41;;;;;;;;;;;3.10;99.90;;;;;;2082051;28;19909;-68
2022/04/01 02:19:42;;;;;;;;;;;3.10;99.90;;;;;;2080137;28;19905;-68
2022/04/01 02:20:42;;;;;;;;;;;3.10;99.90;;;;;;2078151;28;19952;-68
2022/04/01 02:21:43;;;;;;;;;;;3.10;99.90;;;;;;2080419;28;19909;-68
2022/04/01 02:22:44;;;;;;;;;;;3.00;99.90;;;;;;2078362;28;19908;-68
2022/04/01 02:23:45;;;;;;;;;;;3.10;99.90;;;;;;2080750;28;19960;-68
2022/04/01 02:24:50;;;;;;;;;;;3.00;99.90;;;;;;2081215;28;19913;-68
2022/04/01 02:25:51;;;;;;;;;;;3.00;99.90;;;;;;2080334;28;20000;-68
2022/04/01 02:26:52;;;;;;;;;;;3.10;99.90;;;;;;2080130;28;19913;-68
2022/04/01 02:27:52;;;;;;;;;;;3.00;99.90;;;;;;2080674;28;19909;-68
2022/04/01 02:28:56;;;;;;;;;;;3.10;99.90;;;;;;2079417;28;19940;-68
2022/04/01 02:29:57;;;;;;;;;;;3.00;99.90;;;;;;2078158;28;20003;-68
2022/04/01 02:30:57;;;;;;;;;;;3.00;99.90;;;;;;2083183;28;19905;-68
2022/04/01 02:31:58;;;;;;;;;;;3.00;99.90;;;;;;2083721;28;19904;-68
2022/04/01 02:32:58;;;;;;;;;;;3.00;99.90;;;;;;2082991;28;19905;-67
2022/04/01 02:33:59;;;;;;;;;;;3.00;99.90;;;;;;2081480;28;19912;-67
2022/04/01 02:34:59;;;;;;;;;;;3.00;99.90;;;;;;2081022;28;19963;-67
2022/04/01 02:36:00;;;;;;;;;;;3.00;99.90;;;;;;2077925;28;20370;-68
2022/04/01 02:37:04;;;;;;;;;;;3.00;99.90;;;;;;2078820;28;19909;-68
2022/04/01 02:38:05;;;;;;;;;;;3.00;99.90;;;;;;2080866;28;19912;-68
2022/04/01 02:39:05;;;;;;;;;;;3.00;99.90;;;;;;2079896;28;19991;-68
2022/04/01 02:40:07;;;;;;;;;;;3.00;99.90;;;;;;2079981;28;19975;-68
2022/04/01 02:41:08;;;;;;;;;;;3.00;99.90;;;;;;2081781;28;20279;-68
2022/04/01 02:42:09;;;;;;;;;;;3.00;99.90;;;;;;2082571;28;19905;-68
2022/04/01 02:43:09;;;;;;;;;;;2.90;99.90;;;;;;2080147;28;19911;-68
2022/04/01 02:44:12;;;;;;;;;;;2.90;99.90;;;;;;2078558;28;19905;-68
2022/04/01 02:45:13;;;;;;;;;;;2.90;99.90;;;;;;2080870;28;19909;-68
2022/04/01 02:46:13;;;;;;;;;;;2.90;99.90;;;;;;2083929;28;19905;-68
2022/04/01 02:47:14;;;;;;;;;;;2.90;99.90;;;;;;2081174;28;19917;-68
2022/04/01 02:48:15;;;;;;;;;;;2.80;99.90;;;;;;2083442;28;20679;-68
2022/04/01 02:49:16;;;;;;;;;;;2.80;99.90;;;;;;2075682;28;19909;-68
2022/04/01 02:50:17;;;;;;;;;;;2.80;99.90;;;;;;2078812;28;19963;-68
2022/04/01 02:51:17;;;;;;;;;;;2.80;99.90;;;;;;2077422;28;19913;-68
2022/04/01 02:52:18;;;;;;;;;;;2.80;99.90;;;;;;2078154;28;20011;-68
2022/04/01 02:53:18;;;;;;;;;;;2.80;99.90;;;;;;2081137;28;20358;-68
2022/04/01 02:54:20;;;;;;;;;;;2.80;99.90;;;;;;2082896;28;19909;-68
2022/04/01 02:55:21;;;;;;;;;;;2.80;99.90;;;;;;2080677;28;19963;-68
2022/04/01 02:56:21;;;;;;;;;;;2.80;99.90;;;;;;2082640;28;19912;-68
2022/04/01 02:57:22;;;;;;;;;;;2.80;99.90;;;;;;2083046;28;19920;-68
2022/04/01 02:58:23;;;;;;;;;;;2.80;99.90;;;;;;2081914;28;19948;-68
2022/04/01 02:59:25;;;;;;;;;;;2.80;99.90;;;;;;2078621;28;20012;-67
2022/04/01 03:00:26;;;;;;;;;;;2.80;99.90;;;;;;2081172;28;19905;-67
2022/04/01 03:01:29;;;;;;;;;;;2.80;99.90;;;;;;2081137;28;19952;-67
2022/04/01 03:02:29;;;;;;;;;;;2.80;99.90;;;;;;2083854;28;20015;-67
2022/04/01 03:03:31;;;;;;;;;;;2.80;99.90;;;;;;2083882;28;19909;-67
2022/04/01 03:04:32;;;;;;;;;;;2.80;99.90;;;;;;2081052;28;19925;-68
2022/04/01 03:05:33;;;;;;;;;;;2.80;99.90;;;;;;2079827;28;19912;-67
2022/04/01 03:06:33;;;;;;;;;;;2.80;99.90;;;;;;2082091;28;20299;-68
2022/04/01 03:07:33;;;;;;;;;;;2.80;99.90;;;;;;2078259;28;19954;-67
2022/04/01 03:08:34;;;;;;;;;;;2.80;99.90;;;;;;2081083;28;19916;-67
2022/04/01 03:09:34;;;;;;;;;;;2.80;99.90;;;;;;2080667;28;19908;-67
2022/04/01 03:10:36;;;;;;;;;;;2.70;99.90;;;;;;2083375;28;19905;-68
2022/04/01 03:11:37;;;;;;;;;;;2.80;99.90;;;;;;2083224;28;20315;-67
2022/04/01 03:12:38;;;;;;;;;;;2.80;99.90;;;;;;2080134;28;19905;-68
2022/04/01 03:13:38;;;;;;;;;;;2.80;99.90;;;;;;2080061;28;19909;-68
2022/04/01 03:14:38;;;;;;;;;;;2.80;99.90;;;;;;2081919;28;19912;-68
2022/04/01 03:15:39;;;;;;;;;;;2.80;99.90;;;;;;2077507;28;19905;-68
2022/04/01 03:16:40;;;;;;;;;;;2.80;99.90;;;;;;2080218;28;19916;-68
2022/04/01 03:17:40;;;;;;;;;;;2.80;99.90;;;;;;2079905;28;19993;-68
2022/04/01 03:18:41;;;;;;;;;;;2.80;99.90;;;;;;2077088;28;20505;-68
2022/04/01 03:19:41;;;;;;;;;;;2.80;99.90;;;;;;2083196;28;19944;-68
2022/04/01 03:20:45;;;;;;;;;;;2.80;99.90;;;;;;2081101;28;19905;-68
2022/04/01 03:21:45;;;;;;;;;;;2.80;99.90;;;;;;2082205;28;19908;-68
2022/04/01 03:22:46;;;;;;;;;;;2.80;99.90;;;;;;2079454;28;19912;-68
2022/04/01 03:23:47;;;;;;;;;;;2.80;99.90;;;;;;2077816;28;20015;-68
2022/04/01 03:24:47;;;;;;;;;;;2.80;99.90;;;;;;2079879;28;20357;-68
2022/04/01 03:25:49;;;;;;;;;;;2.80;99.90;;;;;;2078732;28;19932;-68
2022/04/01 03:26:49;;;;;;;;;;;2.80;99.90;;;;;;2082374;28;19912;-68
2022/04/01 03:27:50;;;;;;;;;;;2.80;99.90;;;;;;2081914;28;19909;-68
2022/04/01 03:28:51;;;;;;;;;;;2.80;99.90;;;;;;2080768;28;19908;-68
2022/04/01 03:29:51;;;;;;;;;;;2.70;99.90;;;;;;2081763;28;19909;-67
2022/04/01 03:30:52;;;;;;;;;;;2.80;99.90;;;;;;2078840;28;19905;-67
2022/04/01 03:31:52;;;;;;;;;;;2.70;99.90;;;;;;2079631;28;19909;-67
2022/04/01 03:32:53;;;;;;;;;;;2.70;99.90;;;;;;2078719;28;19959;-67
2022/04/01 03:33:53;;;;;;;;;;;2.70;99.90;;;;;;2082287;28;19948;-67
2022/04/01 03:34:54;;;;;;;;;;;2.70;99.90;;;;;;2084872;28;19909;-67
2022/04/01 03:35:54;;;;;;;;;;;2.70;99.90;;;;;;2081660;28;19909;-67
2022/04/01 03:36:55;;;;;;;;;;;2.70;99.90;;;;;;2080704;28;19909;-67
2022/04/01 03:37:55;;;;;;;;;;;2.70;99.90;;;;;;2081320;28;19912;-67
2022/04/01 03:38:55;;;;;;;;;;;2.70;99.90;;;;;;2079679;28;20597;-67
2022/04/01 03:39:56;;;;;;;;;;;2.70;99.90;;;;;;2078822;28;19909;-67
2022/04/01 03:40:57;;;;;;;;;;;2.70;99.90;;;;;;2077720;28;20000;-67
2022/04/01 03:42:00;;;;;;;;;;;2.70;99.90;;;;;;2083371;28;20271;-68
2022/04/01 03:43:01;;;;;;;;;;;2.70;99.90;;;;;;2083092;28;19995;-68
2022/04/01 03:44:01;;;;;;;;;;;2.70;99.90;;;;;;2080788;28;19962;-68
2022/04/01 03:45:03;;;;;;;;;;;2.70;99.90;;;;;;2079291;28;19921;-68
2022/04/01 03:46:05;;;;;;;;;;;2.70;99.90;;;;;;2078060;28;19987;-68
2022/04/01 03:47:10;;;;;;;;;;;2.70;99.90;;;;;;2077116;28;19905;-68
2022/04/01 03:48:14;;;;;;;;;;;2.70;99.90;;;;;;2079219;28;20304;-68
2022/04/01 03:49:24;;;;;;;;;;;2.70;99.90;;;;;;2080880;28;19951;-68
2022/04/01 03:50:29;;;;;;;;;;;2.70;99.90;;;;;;2081945;28;19909;-67
2022/04/01 03:51:30;;;;;;;;;;;2.80;99.90;;;;;;2081760;28;19912;-67
2022/04/01 03:52:32;;;;;;;;;;;2.70;99.90;;;;;;2079872;28;19911;-67
2022/04/01 03:53:34;;;;;;;;;;;2.70;99.90;;;;;;2080808;28;19912;-67
2022/04/01 03:54:36;;;;;;;;;;;2.70;99.90;;;;;;2082434;28;19905;-67
2022/04/01 03:55:38;;;;;;;;;;;2.70;99.90;;;;;;2079958;28;19975;-67
2022/04/01 03:56:38;;;;;;;;;;;2.70;99.90;;;;;;2081386;28;19955;-67
2022/04/01 03:57:40;;;;;;;;;;;2.70;99.90;;;;;;2083464;28;19909;-67
2022/04/01 03:58:46;;;;;;;;;;;2.70;99.90;;;;;;2083285;28;19943;-67
2022/04/01 03:59:50;;;;;;;;;;;2.70;99.90;;;;;;2079710;28;20364;-67
2022/04/01 04:00:52;;;;;;;;;;;2.70;99.90;;;;;;2080333;28;20345;-67
2022/04/01 04:01:53;;;;;;;;;;;2.70;99.90;;;;;;2081311;28;19905;-67
2022/04/01 04:02:54;;;;;;;;;;;2.70;99.90;;;;;;2080774;28;19916;-67
2022/04/01 04:03:56;;;;;;;;;;;2.70;99.90;;;;;;2082195;28;20395;-68
2022/04/01 04:04:57;;;;;;;;;;;2.70;99.90;;;;;;2084203;28;20372;-67
2022/04/01 04:05:58;;;;;;;;;;;2.70;99.90;;;;;;2082609;28;19975;-67
2022/04/01 04:06:59;;;;;;;;;;;2.70;99.90;;;;;;2083144;28;19913;-67
2022/04/01 04:08:00;;;;;;;;;;;2.70;99.90;;;;;;2080141;28;19905;-67
2022/04/01 04:09:02;;;;;;;;;;;2.70;99.90;;;;;;2079739;28;20265;-67
2022/04/01 04:10:06;;;;;;;;;;;2.70;99.90;;;;;;2080040;28;19912;-67
2022/04/01 04:11:09;;;;;;;;;;;2.70;99.90;;;;;;2081085;28;19959;-67
2022/04/01 04:12:13;;;;;;;;;;;2.70;99.90;;;;;;2076423;28;19920;-67
2022/04/01 04:13:15;;;;;;;;;;;2.60;99.90;;;;;;2080474;28;20319;-67
2022/04/01 04:14:15;;;;;;;;;;;2.60;99.90;;;;;;2082962;28;19909;-67
2022/04/01 04:15:16;;;;;;;;;;;2.60;99.90;;;;;;2081032;28;19915;-67
2022/04/01 04:16:20;;;;;;;;;;;2.60;99.90;;;;;;2082567;28;19916;-67
2022/04/01 04:17:30;;;;;;;;;;;2.60;99.90;;;;;;2079090;28;19910;-67
2022/04/01 04:18:34;;;;;;;;;;;2.60;99.90;;;;;;2078324;28;19913;-67
2022/04/01 04:19:54;;;;;;;;;;;2.60;99.90;;;;;;2080514;28;19928;-67
2022/04/01 04:21:05;;;;;;;;;;;2.60;99.90;;;;;;2079876;28;19916;-67
2022/04/01 04:22:11;;;;;;;;;;;2.60;99.90;;;;;;2083011;28;20356;-67
2022/04/01 04:23:24;;;;;;;;;;;2.60;99.90;;;;;;2076678;28;19909;-67
2022/04/01 04:24:44;;;;;;;;;;;2.60;99.90;;;;;;2081998;28;19913;-67
2022/04/01 04:26:04;;;;;;;;;;;2.60;99.90;;;;;;2067738;28;19992;-68
2022/04/01 04:27:11;;;;;;;;;;;2.60;99.90;;;;;;2079505;28;19913;-67
2022/04/01 04:28:16;;;;;;;;;;;2.60;99.90;;;;;;2075543;28;19912;-67
2022/04/01 04:29:17;;;;;;;;;;;2.60;99.90;;;;;;2081694;28;20321;-67
2022/04/01 04:30:18;;;;;;;;;;;2.60;99.90;;;;;;2083407;28;20514;-67
2022/04/01 04:31:24;;;;;;;;;;;2.60;99.90;;;;;;2083046;28;19970;-67
2022/04/01 04:32:33;;;;;;;;;;;2.60;99.90;;;;;;2082021;28;19908;-67
2022/04/01 04:33:37;;;;;;;;;;;2.60;99.90;;;;;;2078456;28;20300;-67
2022/04/01 04:34:38;;;;;;;;;;;2.60;99.90;;;;;;2079952;28;20004;-67
2022/04/01 04:35:39;;;;;;;;;;;2.60;99.90;;;;;;2078724;28;19996;-67
2022/04/01 04:36:41;;;;;;;;;;;2.60;99.90;;;;;;2079293;28;19912;-67
2022/04/01 04:37:45;;;;;;;;;;;2.60;99.90;;;;;;2082978;28;19904;-67
2022/04/01 04:38:46;;;;;;;;;;;2.70;99.90;;;;;;2082130;28;19948;-67
2022/04/01 04:39:48;;;;;;;;;;;2.60;99.90;;;;;;2083263;28;19927;-68
2022/04/01 04:40:49;;;;;;;;;;;2.60;99.90;;;;;;2081759;28;19963;-67
2022/04/01 04:41:50;;;;;;;;;;;2.60;99.90;;;;;;2078746;28;19905;-67
2022/04/01 04:42:51;;;;;;;;;;;2.60;99.90;;;;;;2079942;28;19983;-68
2022/04/01 04:43:53;;;;;;;;;;;2.60;99.90;;;;;;2082030;28;20261;-67
2022/04/01 04:44:54;;;;;;;;;;;2.60;99.90;;;;;;2085235;28;19909;-67
2022/04/01 04:45:58;;;;;;;;;;;2.60;99.90;;;;;;2084619;28;19963;-67
2022/04/01 04:46:59;;;;;;;;;;;2.60;99.90;;;;;;2081098;28;20002;-67
2022/04/01 04:48:00;;;;;;;;;;;2.60;99.90;;;;;;2082605;28;19911;-67
2022/04/01 04:49:01;;;;;;;;;;;2.60;99.90;;;;;;2081729;28;20016;-67
2022/04/01 04:50:02;;;;;;;;;;;2.60;99.90;;;;;;2082052;28;19951;-67
2022/04/01 04:51:03;;;;;;;;;;;2.60;99.90;;;;;;2079610;28;19909;-67
2022/04/01 04:52:03;;;;;;;;;;;2.60;99.90;;;;;;2077677;28;19906;-67
2022/04/01 04:53:04;;;;;;;;;;;2.60;99.90;;;;;;2084479;28;19913;-67
2022/04/01 04:54:05;;;;;;;;;;;2.60;99.90;;;;;;2085140;28;19958;-67
2022/04/01 04:55:10;;;;;;;;;;;2.60;99.90;;;;;;2078592;28;20403;-67
2022/04/01 04:56:10;;;;;;;;;;;2.60;99.90;;;;;;2075785;28;19909;-67
2022/04/01 04:57:11;;;;;;;;;;;2.60;99.90;;;;;;2079075;28;20388;-67
2022/04/01 04:58:11;;;;;;;;;;;2.60;99.90;;;;;;2081861;28;19905;-67
2022/04/01 04:59:12;;;;;;;;;;;2.60;99.90;;;;;;2077995;28;19933;-67
2022/04/01 05:00:13;;;;;;;;;;;2.60;99.90;;;;;;2081776;28;19909;-67
2022/04/01 05:01:40;;;;;;;;;;;2.60;99.90;;;;;;2085186;28;20250;-67
2022/04/01 05:02:51;;;;;;;;;;;2.60;99.90;;;;;;2068229;28;19959;-67
2022/04/01 05:04:07;;;;;;;;;;;2.60;99.90;;;;;;2082447;28;20419;-67
2022/04/01 05:05:12;;;;;;;;;;;2.60;99.90;;;;;;2079251;28;19909;-67
2022/04/01 05:06:16;;;;;;;;;;;2.60;99.90;;;;;;2076723;28;19912;-67
2022/04/01 05:07:35;;;;;;;;;;;2.60;99.90;;;;;;2074099;28;19910;-67
2022/04/01 05:08:54;;;;;;;;;;;2.50;99.90;;;;;;2076315;28;19913;-67
2022/04/01 05:10:09;;;;;;;;;;;2.50;99.90;;;;;;2081694;28;19905;-67
2022/04/01 05:11:28;;;;;;;;;;;2.50;99.90;;;;;;2075025;28;19905;-67
2022/04/01 05:12:32;;;;;;;;;;;2.60;99.90;;;;;;2078468;28;19905;-67
2022/04/01 05:13:32;;;;;;;;;;;2.50;99.90;;;;;;2078868;28;19983;-67
2022/04/01 05:14:56;;;;;;;;;;;2.50;99.90;;;;;;2081768;28;19913;-67
2022/04/01 05:16:02;;;;;;;;;;;2.50;99.90;;;;;;2079090;28;19940;-67
2022/04/01 05:17:04;;;;;;;;;;;2.60;99.90;;;;;;2084634;28;20356;-67
2022/04/01 05:18:25;;;;;;;;;;;2.50;99.90;;;;;;2080101;28;19913;-67
2022/04/01 05:19:27;;;;;;;;;;;2.60;99.90;;;;;;2083388;28;20390;-67
2022/04/01 05:20:28;;;;;;;;;;;2.50;99.90;;;;;;2079797;28;19909;-67
2022/04/01 05:21:36;;;;;;;;;;;2.50;99.90;;;;;;2082720;28;19905;-67
2022/04/01 05:22:42;;;;;;;;;;;2.60;99.90;;;;;;2078928;28;19928;-67
2022/04/01 05:23:48;;;;;;;;;;;2.60;99.90;;;;;;2082050;28;20275;-67
2022/04/01 05:24:50;;;;;;;;;;;2.60;99.90;;;;;;2084816;28;19958;-67
2022/04/01 05:25:58;;;;;;;;;;;2.60;99.90;;;;;;2081262;28;19963;-67
2022/04/01 05:27:00;;;;;;;;;;;2.60;99.90;;;;;;2081642;28;20003;-67
2022/04/01 05:28:01;;;;;;;;;;;2.60;99.90;;;;;;2082127;28;20446;-67
2022/04/01 05:29:02;;;;;;;;;;;2.60;99.90;;;;;;2081617;28;20616;-67
2022/04/01 05:30:13;;;;;;;;;;;2.60;99.90;;;;;;2080152;28;19905;-67
2022/04/01 05:31:18;;;;;;;;;;;2.60;99.90;;;;;;2081726;28;19913;-67
2022/04/01 05:32:20;;;;;;;;;;;2.60;99.90;;;;;;2083836;28;19905;-67
2022/04/01 05:33:25;;;;;;;;;;;2.60;99.90;;;;;;2080234;28;19905;-67
2022/04/01 05:34:32;;;;;;;;;;;2.70;99.90;;;;;;2079665;28;19913;-67
2022/04/01 05:35:35;;;;;;;;;;;2.60;99.90;;;;;;2079717;28;20317;-67
2022/04/01 05:36:36;;;;;;;;;;;2.60;99.90;;;;;;2080132;28;19912;-67
2022/04/01 05:37:38;;;;;;;;;;;2.60;99.90;;;;;;2082173;28;20296;-67
2022/04/01 05:38:40;;;;;;;;;;;2.60;99.90;;;;;;2078255;28;20423;-67
2022/04/01 05:39:41;;;;;;;;;;;2.60;99.90;;;;;;2079451;28;20276;-67
2022/04/01 05:40:42;;;;;;;;;;;2.60;99.90;;;;;;2081196;28;20407;-67
2022/04/01 05:41:42;;;;;;;;;;;2.60;99.90;;;;;;2080120;28;20299;-67
2022/04/01 05:42:44;;;;;;;;;;;2.60;99.90;;;;;;2081468;28;19905;-67
2022/04/01 05:43:46;;;;;;;;;;;2.60;99.90;;;;;;2081777;28;20523;-67
2022/04/01 05:44:47;;;;;;;;;;;2.60;99.90;;;;;;2080168;28;19913;-67
2022/04/01 05:45:49;;;;;;;;;;;2.60;99.90;;;;;;2077844;28;19905;-67
2022/04/01 05:46:53;;;;;;;;;;;2.60;99.90;;;;;;2078977;28;19952;-67
2022/04/01 05:47:54;;;;;;;;;;;2.60;99.90;;;;;;2080909;28;20556;-67
2022/04/01 05:48:56;;;;;;;;;;;2.60;99.90;;;;;;2080227;28;19941;-67
2022/04/01 05:49:58;;;;;;;;;;;2.60;99.90;;;;;;2080149;28;19908;-67
2022/04/01 05:51:01;;;;;;;;;;;2.60;99.90;;;;;;2084475;28;19947;-67
2022/04/01 05:52:01;;;;;;;;;;;2.60;99.90;;;;;;2079396;28;19912;-67
2022/04/01 05:53:02;;;;;;;;;;;2.60;99.90;;;;;;2081924;28;20388;-67
2022/04/01 05:54:04;;;;;;;;;;;2.60;99.90;;;;;;2076268;28;19913;-67
2022/04/01 05:55:07;;;;;;;;;;;2.60;99.90;;;;;;2074529;28;19959;-67
2022/04/01 05:56:07;;;;;;;;;;;2.60;99.90;;;;;;2073265;28;19955;-67
2022/04/01 05:57:08;;;;;;;;;;;2.60;99.90;;;;;;2073632;28;20000;-67
2022/04/01 05:58:09;;;;;;;;;;;2.60;99.90;;;;;;2075631;28;19905;-67
2022/04/01 05:59:11;;;;;;;;;;;2.60;99.90;;;;;;2075347;28;20050;-67
2022/04/01 06:00:12;;;;;;;;;;;2.60;99.90;;;;;;2073940;28;19945;-67
2022/04/01 06:01:30;;;;;;;;;;;2.60;99.90;;;;;;2076695;28;19909;-67
2022/04/01 06:03:06;;;;;;;;;;;2.60;99.90;;;;;;2074905;28;19975;-67
2022/04/01 06:04:16;;;;;;;;;;;2.50;99.90;;;;;;2055435;28;19914;-67
2022/04/01 06:05:21;;;;;;;;;;;2.50;99.90;;;;;;2056678;28;19917;-67
2022/04/01 06:06:27;;;;;;;;;;;2.50;99.90;;;;;;2064258;28;19944;-67
2022/04/01 06:07:33;;;;;;;;;;;2.50;99.90;;;;;;2077323;28;20035;-67
2022/04/01 06:08:53;;;;;;;;;;;2.60;99.90;;;;;;2076314;28;19905;-67
2022/04/01 06:10:14;;;;;;;;;;;2.50;99.90;;;;;;2054206;28;20618;-67
2022/04/01 06:11:37;;;;;;;;;;;2.50;99.90;;;;;;2063588;28;20043;-67
2022/04/01 06:12:43;;;;;;;;;;;2.50;99.90;;;;;;2076442;28;19951;-67
2022/04/01 06:13:47;;;;;;;;;;;2.60;99.90;;;;;;2077509;28;20486;-67
2022/04/01 06:14:58;;;;;;;;;;;2.60;99.90;;;;;;2077136;28;19913;-67
2022/04/01 06:16:04;;;;;;;;;;;2.50;99.90;;;;;;2076860;28;19911;-67